Time;durP1;ratioP1;P1;durP2;ratioP2;P2;SDS_P1;SDS_P2;PMS_P1;PMS_P2;Temp;Humidity;BMP_temperature;BMP_pressure;BME280_temperature;BME280_humidity;BME280_pressure;Samples;Min_cycle;Max_cycle;Signal;HPM_P1;HPM_P2
2023/01/07 00:01:15;;;;;;;;;;;;;;;9.86;74.00;98821.16;7365875;19;19941;-82
2023/01/07 00:03:42;;;;;;;;;;;;;;;9.89;74.56;98818.22;7370940;19;19939;-82
2023/01/07 00:06:10;;;;;;;;;;;;;;;9.94;73.92;98826.56;7365269;19;19930;-83
2023/01/07 00:08:38;;;;;;;;;;;;;;;9.97;74.48;98821.00;7368655;19;19926;-82
2023/01/07 00:11:06;;;;;;;;;;;;;;;9.98;74.37;98816.53;7365587;19;19915;-83
2023/01/07 00:13:33;;;;;;;;;;;;;;;10.03;74.18;98814.31;7367724;19;19915;-82
2023/01/07 00:16:06;;;;;;;;;;;;;;;10.06;74.43;98811.41;7368836;19;19919;-83
2023/01/07 00:18:33;;;;;;;;;;;;;;;10.03;74.08;98811.66;7366295;19;21167;-83
2023/01/07 00:21:00;;;;;;;;;;;;;;;10.07;74.08;98807.78;7362471;19;19914;-83
2023/01/07 00:23:28;;;;;;;;;;;;;;;10.06;74.28;98806.13;7361699;19;19935;-83
2023/01/07 00:26:01;;;;;;;;;;;;;;;9.97;74.55;98801.66;7363079;19;20456;-83
2023/01/07 00:28:28;;;;;;;;;;;;;;;9.85;74.04;98809.75;7363474;19;19929;-82
2023/01/07 00:31:01;;;;;;;;;;;;;;;9.83;74.14;98802.94;7364418;19;19934;-82
2023/01/07 00:33:28;;;;;;;;;;;;;;;9.81;74.11;98800.44;7360771;19;20049;-82
2023/01/07 00:36:01;;;;;;;;;;;;;;;9.80;73.61;98795.31;7352656;19;19918;-82
2023/01/07 00:38:28;;;;;;;;;;;;;;;9.91;73.71;98781.94;7359653;19;19914;-82
2023/01/07 00:40:54;;;;;;;;;;;;;;;9.95;73.99;98780.66;7363099;19;19922;-82
2023/01/07 00:43:21;;;;;;;;;;;;;;;9.96;74.12;98782.34;7361346;19;19914;-83
2023/01/07 00:45:48;;;;;;;;;;;;;;;9.98;74.21;98779.53;7359495;19;19949;-82
2023/01/07 00:48:17;;;;;;;;;;;;;;;9.98;74.08;98780.41;7367789;19;19914;-82
2023/01/07 00:50:44;;;;;;;;;;;;;;;9.98;74.11;98782.19;7368317;19;19923;-82
2023/01/07 00:53:10;;;;;;;;;;;;;;;10.00;74.16;98778.44;7358251;19;19918;-82
2023/01/07 00:55:37;;;;;;;;;;;;;;;9.98;74.41;98775.13;7349545;19;19918;-82
2023/01/07 00:58:04;;;;;;;;;;;;;;;9.97;74.57;98773.44;7362744;19;20337;-82
2023/01/07 01:00:31;;;;;;;;;;;;;;;9.95;74.04;98775.38;7364842;19;19914;-82
2023/01/07 01:02:58;;;;;;;;;;;;;;;9.97;74.31;98770.78;7362323;19;19918;-82
2023/01/07 01:05:24;;;;;;;;;;;;;;;9.97;74.28;98769.94;7360509;19;19931;-82
2023/01/07 01:07:51;;;;;;;;;;;;;;;9.96;74.10;98777.06;7361177;19;20002;-82
2023/01/07 01:10:18;;;;;;;;;;;;;;;9.92;73.88;98780.94;7361332;19;19946;-83
2023/01/07 01:12:46;;;;;;;;;;;;;;;9.86;74.29;98766.50;7363968;19;19911;-82
2023/01/07 01:15:13;;;;;;;;;;;;;;;9.85;74.00;98764.00;7363624;19;19946;-82
2023/01/07 01:17:39;;;;;;;;;;;;;;;9.74;74.21;98762.34;7366537;19;20697;-82
2023/01/07 01:20:07;;;;;;;;;;;;;;;9.71;74.28;98759.13;7365695;19;20348;-82
2023/01/07 01:22:33;;;;;;;;;;;;;;;9.73;73.86;98763.31;7364781;19;19918;-82
2023/01/07 01:25:00;;;;;;;;;;;;;;;9.82;73.32;98761.63;7363417;19;19923;-82
2023/01/07 01:27:28;;;;;;;;;;;;;;;9.79;73.81;98764.56;7364428;19;19933;-83
2023/01/07 01:29:54;;;;;;;;;;;;;;;9.82;74.01;98765.13;7363375;19;19947;-82
2023/01/07 01:32:21;;;;;;;;;;;;;;;9.51;75.28;98761.81;7363146;19;20668;-82
2023/01/07 01:34:48;;;;;;;;;;;;;;;9.75;74.50;98758.72;7366120;19;19926;-82
2023/01/07 01:37:14;;;;;;;;;;;;;;;9.89;74.42;98762.72;7367955;19;19919;-81
2023/01/07 01:39:41;;;;;;;;;;;;;;;9.95;73.84;98764.78;7385101;19;19922;-82
2023/01/07 01:42:14;;;;;;;;;;;;;;;9.97;73.75;98772.59;7385117;19;19931;-82
2023/01/07 01:44:44;;;;;;;;;;;;;;;9.99;73.74;98766.19;7377670;19;19915;-82
2023/01/07 01:47:19;;;;;;;;;;;;;;;10.00;73.35;98764.38;7378485;19;19921;-82
2023/01/07 01:49:55;;;;;;;;;;;;;;;9.97;73.36;98757.56;7380628;19;19923;-82
2023/01/07 01:52:23;;;;;;;;;;;;;;;9.93;73.91;98753.56;7374475;19;20464;-82
2023/01/07 01:54:51;;;;;;;;;;;;;;;9.94;73.75;98754.38;7373860;19;19921;-82
2023/01/07 01:57:18;;;;;;;;;;;;;;;9.93;73.96;98753.56;7375011;19;19919;-81
2023/01/07 01:59:47;;;;;;;;;;;;;;;9.95;74.05;98751.59;7374856;19;19921;-83
2023/01/07 02:02:14;;;;;;;;;;;;;;;9.94;74.22;98749.09;7364556;19;19919;-82
2023/01/07 02:04:42;;;;;;;;;;;;;;;9.95;74.14;98751.59;7359779;19;19923;-82
2023/01/07 02:07:10;;;;;;;;;;;;;;;9.99;74.04;98744.22;7361762;19;20467;-82
2023/01/07 02:09:41;;;;;;;;;;;;;;;9.99;74.05;98747.69;7370355;19;19915;-82
2023/01/07 02:12:08;;;;;;;;;;;;;;;9.97;74.01;98739.06;7362988;19;19915;-82
2023/01/07 02:14:44;;;;;;;;;;;;;;;9.96;74.07;98742.69;7362211;19;19911;-82
2023/01/07 02:17:29;;;;;;;;;;;;;;;9.91;74.22;98741.47;7360733;19;20992;-81
2023/01/07 02:19:56;;;;;;;;;;;;;;;9.91;74.35;98739.66;7361562;19;20588;-82
2023/01/07 02:22:32;;;;;;;;;;;;;;;9.81;74.94;98731.72;7361167;19;19918;-83
2023/01/07 02:25:11;;;;;;;;;;;;;;;9.74;75.06;98727.16;7365987;19;20284;-82
2023/01/07 02:27:49;;;;;;;;;;;;;;;9.67;75.11;98722.44;7366091;19;19933;-82
2023/01/07 02:30:34;;;;;;;;;;;;;;;9.71;75.15;98733.56;7360064;19;19926;-82
2023/01/07 02:33:04;;;;;;;;;;;;;;;9.78;74.77;98718.81;7363082;19;19922;-82
2023/01/07 02:35:49;;;;;;;;;;;;;;;9.80;75.03;98718.69;7364483;19;20539;-82
2023/01/07 02:38:32;;;;;;;;;;;;;;;9.78;75.01;98717.97;7365603;19;19914;-81
2023/01/07 02:41:08;;;;;;;;;;;;;;;9.82;74.92;98711.41;7370987;19;20296;-82
2023/01/07 02:43:39;;;;;;;;;;;;;;;9.70;75.31;98700.19;7372014;19;19926;-82
2023/01/07 02:46:09;;;;;;;;;;;;;;;9.65;75.17;98700.59;7372158;19;19922;-82
2023/01/07 02:48:36;;;;;;;;;;;;;;;9.64;75.38;98711.34;7371248;19;19925;-82
2023/01/07 02:51:03;;;;;;;;;;;;;;;9.64;75.28;98698.94;7368089;19;20026;-82
2023/01/07 02:53:30;;;;;;;;;;;;;;;9.62;75.16;98700.06;7364313;19;19911;-82
2023/01/07 02:56:02;;;;;;;;;;;;;;;9.58;75.47;98691.56;7365860;19;19970;-82
2023/01/07 02:58:32;;;;;;;;;;;;;;;9.62;75.14;98689.50;7368771;19;19915;-82
2023/01/07 03:01:09;;;;;;;;;;;;;;;9.57;75.10;98689.91;7367868;19;19974;-82
2023/01/07 03:03:46;;;;;;;;;;;;;;;9.65;75.15;98687.41;7369154;19;19982;-82
2023/01/07 03:06:13;;;;;;;;;;;;;;;9.59;75.07;98687.97;7365810;19;19914;-82
2023/01/07 03:08:43;;;;;;;;;;;;;;;9.52;75.45;98683.41;7366162;19;19922;-82
2023/01/07 03:11:09;;;;;;;;;;;;;;;9.54;75.45;98679.66;7364612;19;19918;-82
2023/01/07 03:13:38;;;;;;;;;;;;;;;9.60;75.51;98672.97;7366508;19;19997;-82
2023/01/07 03:16:07;;;;;;;;;;;;;;;9.37;75.91;98675.94;7367637;19;19953;-82
2023/01/07 03:18:34;;;;;;;;;;;;;;;9.25;76.26;98677.03;7365795;19;19922;-82
2023/01/07 03:21:02;;;;;;;;;;;;;;;9.14;73.38;98670.09;7368576;19;19923;-82
2023/01/07 03:23:29;;;;;;;;;;;;;;;9.40;73.21;98669.50;7363090;19;20200;-82
2023/01/07 03:25:58;;;;;;;;;;;;;;;9.45;74.03;98668.13;7366163;19;19919;-82
2023/01/07 03:28:26;;;;;;;;;;;;;;;9.53;74.47;98659.50;7366992;19;19934;-83
2023/01/07 03:30:53;;;;;;;;;;;;;;;9.63;74.29;98657.66;7370111;19;20560;-82
2023/01/07 03:33:27;;;;;;;;;;;;;;;9.58;74.81;98651.94;7366682;19;19949;-82
2023/01/07 03:35:54;;;;;;;;;;;;;;;9.56;74.80;98653.94;7368231;19;19918;-82
2023/01/07 03:38:21;;;;;;;;;;;;;;;9.68;74.29;98641.38;7368472;19;20357;-82
2023/01/07 03:40:50;;;;;;;;;;;;;;;9.44;72.54;98644.50;7366164;19;19932;-83
2023/01/07 03:43:17;;;;;;;;;;;;;;;9.63;72.83;98644.44;7360607;19;19923;-82
2023/01/07 03:45:44;;;;;;;;;;;;;;;9.65;72.53;98642.50;7365455;19;20355;-83
2023/01/07 03:48:10;;;;;;;;;;;;;;;9.40;72.49;98643.94;7362962;19;20245;-82
2023/01/07 03:50:37;;;;;;;;;;;;;;;9.40;72.12;98643.94;7369413;19;19918;-82
2023/01/07 03:53:05;;;;;;;;;;;;;;;9.43;72.61;98635.75;7364114;19;19923;-82
2023/01/07 03:55:34;;;;;;;;;;;;;;;9.62;72.21;98636.69;7362984;19;20506;-83
2023/01/07 03:58:02;;;;;;;;;;;;;;;9.55;72.51;98623.19;7366500;19;20292;-82
2023/01/07 04:00:29;;;;;;;;;;;;;;;9.67;71.61;98618.59;7363284;19;19934;-82
2023/01/07 04:03:08;;;;;;;;;;;;;;;9.59;72.28;98614.03;7367682;19;20625;-82
2023/01/07 04:05:39;;;;;;;;;;;;;;;9.70;72.62;98612.19;7365285;19;19951;-82
2023/01/07 04:08:06;;;;;;;;;;;;;;;9.58;73.41;98622.06;7366535;19;19957;-82
2023/01/07 04:10:36;;;;;;;;;;;;;;;9.65;73.49;98610.78;7362394;19;20480;-82
2023/01/07 04:13:03;;;;;;;;;;;;;;;9.66;73.38;98604.56;7358511;19;19948;-83
2023/01/07 04:15:30;;;;;;;;;;;;;;;9.67;73.39;98608.84;7355825;19;19986;-83
2023/01/07 04:17:56;;;;;;;;;;;;;;;9.71;73.03;98606.72;7368850;19;19919;-82
2023/01/07 04:20:23;;;;;;;;;;;;;;;9.63;73.66;98604.81;7363052;19;20026;-82
2023/01/07 04:22:50;;;;;;;;;;;;;;;9.55;74.02;98609.97;7366924;19;19926;-82
2023/01/07 04:25:17;;;;;;;;;;;;;;;9.57;74.53;98604.56;7366911;19;20298;-83
2023/01/07 04:27:44;;;;;;;;;;;;;;;9.53;74.39;98601.41;7367510;19;19916;-83
2023/01/07 04:30:11;;;;;;;;;;;;;;;9.62;74.47;98594.41;7364762;19;19918;-82
2023/01/07 04:32:37;;;;;;;;;;;;;;;9.64;74.58;98595.09;7366538;19;19970;-82
2023/01/07 04:35:04;;;;;;;;;;;;;;;9.51;74.75;98592.78;7364754;19;19926;-82
2023/01/07 04:37:31;;;;;;;;;;;;;;;9.55;74.68;98594.13;7362581;19;19919;-82
2023/01/07 04:39:59;;;;;;;;;;;;;;;9.65;74.55;98594.13;7368006;19;19918;-82
2023/01/07 04:42:30;;;;;;;;;;;;;;;9.57;74.77;98594.00;7367666;19;19930;-83
2023/01/07 04:44:56;;;;;;;;;;;;;;;9.63;74.78;98596.06;7367096;19;20328;-83
2023/01/07 04:47:23;;;;;;;;;;;;;;;9.62;74.60;98591.75;7362248;19;20033;-82
2023/01/07 04:49:51;;;;;;;;;;;;;;;9.62;74.84;98589.94;7369107;19;21932;-82
2023/01/07 04:52:18;;;;;;;;;;;;;;;9.67;74.60;98579.78;7362739;19;19982;-83
2023/01/07 04:54:44;;;;;;;;;;;;;;;9.65;74.47;98579.09;7365426;19;19914;-82
2023/01/07 04:57:11;;;;;;;;;;;;;;;9.63;74.57;98581.03;7388323;19;21149;-82
2023/01/07 04:59:38;;;;;;;;;;;;;;;9.57;74.60;98571.06;7396474;19;19917;-82
2023/01/07 05:02:04;;;;;;;;;;;;;;;9.63;74.50;98573.13;7381572;19;19935;-83
2023/01/07 05:04:31;;;;;;;;;;;;;;;9.63;74.43;98575.75;7372045;19;19927;-83
2023/01/07 05:06:58;;;;;;;;;;;;;;;9.54;74.58;98573.16;7374849;19;19998;-83
2023/01/07 05:09:25;;;;;;;;;;;;;;;9.60;74.78;98565.47;7374849;19;19910;-83
2023/01/07 05:11:52;;;;;;;;;;;;;;;9.58;74.54;98564.78;7378252;19;19926;-82
2023/01/07 05:14:19;;;;;;;;;;;;;;;9.60;74.53;98564.66;7368943;19;19922;-83
2023/01/07 05:16:49;;;;;;;;;;;;;;;9.56;74.77;98558.84;7372693;19;19922;-82
2023/01/07 05:19:16;;;;;;;;;;;;;;;9.62;75.04;98555.59;7366694;19;19919;-82
2023/01/07 05:21:45;;;;;;;;;;;;;;;9.66;75.00;98559.63;7368340;19;19919;-83
2023/01/07 05:24:14;;;;;;;;;;;;;;;9.64;74.85;98550.19;7361291;19;19922;-82
2023/01/07 05:26:41;;;;;;;;;;;;;;;9.65;74.90;98555.31;7368627;19;19911;-82
2023/01/07 05:29:08;;;;;;;;;;;;;;;9.57;75.48;98549.94;7371029;19;19914;-82
2023/01/07 05:31:35;;;;;;;;;;;;;;;9.63;75.07;98543.22;7368256;19;19921;-82
2023/01/07 05:34:03;;;;;;;;;;;;;;;9.66;74.92;98538.50;7366220;19;19918;-82
2023/01/07 05:36:30;;;;;;;;;;;;;;;9.59;74.99;98539.22;7363363;19;20924;-82
2023/01/07 05:38:57;;;;;;;;;;;;;;;9.62;75.06;98536.28;7372788;19;19915;-82
2023/01/07 05:41:23;;;;;;;;;;;;;;;9.61;74.98;98535.47;7364194;19;20465;-82
2023/01/07 05:43:50;;;;;;;;;;;;;;;9.57;74.98;98538.53;7367612;19;19922;-82
2023/01/07 05:46:16;;;;;;;;;;;;;;;9.52;74.71;98531.03;7366188;19;19918;-82
2023/01/07 05:48:43;;;;;;;;;;;;;;;9.49;74.99;98528.69;7369178;19;20352;-82
2023/01/07 05:51:10;;;;;;;;;;;;;;;9.57;75.06;98525.34;7366747;19;20279;-82
2023/01/07 05:53:36;;;;;;;;;;;;;;;9.59;74.92;98526.84;7367915;19;19915;-82
2023/01/07 05:56:03;;;;;;;;;;;;;;;9.57;75.12;98515.59;7368368;19;19929;-82
2023/01/07 05:58:30;;;;;;;;;;;;;;;9.63;74.84;98508.88;7373561;19;20526;-82
2023/01/07 06:00:57;;;;;;;;;;;;;;;9.61;74.82;98510.84;7369505;19;19922;-83
2023/01/07 06:03:24;;;;;;;;;;;;;;;9.63;74.99;98512.34;7366572;19;19925;-82
2023/01/07 06:05:51;;;;;;;;;;;;;;;9.57;74.93;98510.31;7367517;19;19922;-82
2023/01/07 06:08:18;;;;;;;;;;;;;;;9.58;74.96;98503.22;7364155;19;19918;-82
2023/01/07 06:10:45;;;;;;;;;;;;;;;9.59;74.97;98508.38;7374875;19;19922;-83
2023/01/07 06:13:11;;;;;;;;;;;;;;;9.54;74.80;98502.69;7364292;19;20245;-81
2023/01/07 06:15:38;;;;;;;;;;;;;;;9.44;74.98;98515.09;7364425;19;20348;-82
2023/01/07 06:18:04;;;;;;;;;;;;;;;9.41;75.04;98503.00;7372000;19;19922;-82
2023/01/07 06:20:34;;;;;;;;;;;;;;;9.31;75.76;98512.78;7371190;19;19915;-82
2023/01/07 06:23:01;;;;;;;;;;;;;;;9.33;75.74;98513.47;7373442;19;19918;-82
2023/01/07 06:25:28;;;;;;;;;;;;;;;9.23;75.94;98505.56;7368542;19;19911;-82
2023/01/07 06:27:56;;;;;;;;;;;;;;;9.30;76.06;98505.00;7371242;19;20355;-82
2023/01/07 06:30:22;;;;;;;;;;;;;;;9.14;76.58;98500.34;7369956;19;19965;-82
2023/01/07 06:32:49;;;;;;;;;;;;;;;9.11;76.85;98505.88;7367789;19;19911;-82
2023/01/07 06:35:16;;;;;;;;;;;;;;;9.18;76.69;98504.34;7367461;19;19914;-83
2023/01/07 06:37:42;;;;;;;;;;;;;;;9.13;76.99;98502.13;7376216;19;19964;-82
2023/01/07 06:40:09;;;;;;;;;;;;;;;9.11;77.03;98504.09;7376211;19;19930;-83
2023/01/07 06:42:36;;;;;;;;;;;;;;;8.99;77.20;98498.13;7376492;19;19920;-82
2023/01/07 06:45:02;;;;;;;;;;;;;;;9.05;77.44;98501.19;7369539;19;19911;-82
2023/01/07 06:47:29;;;;;;;;;;;;;;;9.16;77.10;98493.94;7368858;19;20208;-82
2023/01/07 06:49:55;;;;;;;;;;;;;;;8.97;77.37;98494.81;7372114;19;19927;-83
2023/01/07 06:52:22;;;;;;;;;;;;;;;8.79;77.39;98496.50;7371921;19;20345;-83
2023/01/07 06:54:49;;;;;;;;;;;;;;;8.82;76.80;98479.56;7374148;19;21749;-82
2023/01/07 06:57:15;;;;;;;;;;;;;;;8.89;76.51;98478.03;7371659;19;19933;-82
2023/01/07 06:59:42;;;;;;;;;;;;;;;8.90;75.97;98477.91;7375652;19;19944;-82
2023/01/07 07:02:15;;;;;;;;;;;;;;;8.97;76.08;98478.97;7372598;19;19918;-82
2023/01/07 07:04:42;;;;;;;;;;;;;;;8.91;75.88;98474.28;7369071;19;20397;-82
2023/01/07 07:07:09;;;;;;;;;;;;;;;8.84;76.54;98477.63;7369054;19;20671;-82
2023/01/07 07:09:35;;;;;;;;;;;;;;;8.73;76.05;98482.09;7369481;19;19914;-82
2023/01/07 07:12:02;;;;;;;;;;;;;;;8.71;76.29;98477.91;7376087;19;19922;-82
2023/01/07 07:14:28;;;;;;;;;;;;;;;9.02;75.31;98476.75;7373037;19;19918;-82
2023/01/07 07:16:55;;;;;;;;;;;;;;;8.84;76.21;98472.34;7374781;19;19925;-82
2023/01/07 07:19:22;;;;;;;;;;;;;;;8.71;76.42;98468.19;7370543;19;19930;-83
2023/01/07 07:21:48;;;;;;;;;;;;;;;8.67;76.69;98477.38;7371032;19;19926;-82
2023/01/07 07:24:15;;;;;;;;;;;;;;;8.70;75.99;98465.72;7368030;19;19914;-83
2023/01/07 07:26:41;;;;;;;;;;;;;;;8.74;74.88;98461.81;7372356;19;19919;-82
2023/01/07 07:29:09;;;;;;;;;;;;;;;8.94;74.92;98470.53;7369887;19;19925;-82
2023/01/07 07:31:36;;;;;;;;;;;;;;;8.69;74.31;98469.31;7371333;19;20041;-82
2023/01/07 07:34:03;;;;;;;;;;;;;;;8.74;74.80;98470.56;7372765;19;20313;-82
2023/01/07 07:36:29;;;;;;;;;;;;;;;8.86;74.44;98471.22;7369945;19;19939;-82
2023/01/07 07:38:56;;;;;;;;;;;;;;;8.74;73.94;98462.66;7371918;19;19922;-82
2023/01/07 07:41:23;;;;;;;;;;;;;;;8.93;73.94;98468.88;7368040;19;19918;-83
2023/01/07 07:43:49;;;;;;;;;;;;;;;9.00;73.56;98457.59;7372912;19;19922;-81
2023/01/07 07:46:16;;;;;;;;;;;;;;;8.92;72.96;98460.09;7370155;19;19930;-82
2023/01/07 07:48:43;;;;;;;;;;;;;;;8.88;72.44;98450.00;7373060;19;20560;-82
2023/01/07 07:51:09;;;;;;;;;;;;;;;9.08;71.69;98446.28;7370716;19;19914;-82
2023/01/07 07:53:36;;;;;;;;;;;;;;;8.78;72.34;98444.75;7360848;19;19930;-82
2023/01/07 07:56:05;;;;;;;;;;;;;;;8.93;71.92;98448.59;7367324;19;19925;-82
2023/01/07 07:58:32;;;;;;;;;;;;;;;9.09;71.37;98447.97;7372024;19;19921;-82
2023/01/07 08:00:58;;;;;;;;;;;;;;;8.97;71.72;98444.66;7373031;19;19925;-82
2023/01/07 08:03:25;;;;;;;;;;;;;;;9.15;70.52;98450.03;7365641;19;19923;-82
2023/01/07 08:05:51;;;;;;;;;;;;;;;9.26;70.73;98449.00;7361761;19;20022;-82
2023/01/07 08:08:18;;;;;;;;;;;;;;;9.18;71.04;98438.34;7361845;19;19918;-82
2023/01/07 08:10:44;;;;;;;;;;;;;;;9.22;70.52;98440.56;7367328;19;19925;-82
2023/01/07 08:13:11;;;;;;;;;;;;;;;9.08;70.50;98437.56;7366603;19;20523;-82
2023/01/07 08:15:41;;;;;;;;;;;;;;;9.03;70.32;98435.38;7365546;19;19958;-82
2023/01/07 08:18:08;;;;;;;;;;;;;;;9.03;70.90;98438.00;7379625;19;19943;-81
2023/01/07 08:20:35;;;;;;;;;;;;;;;9.00;70.66;98433.00;7392658;19;19919;-82
2023/01/07 08:23:03;;;;;;;;;;;;;;;8.87;70.99;98432.47;7382651;19;19919;-82
2023/01/07 08:25:31;;;;;;;;;;;;;;;9.20;71.05;98428.50;7380224;19;20305;-82
2023/01/07 08:27:58;;;;;;;;;;;;;;;9.20;70.88;98431.94;7367801;19;19925;-82
2023/01/07 08:30:24;;;;;;;;;;;;;;;9.26;70.71;98425.25;7362519;19;19915;-83
2023/01/07 08:32:51;;;;;;;;;;;;;;;9.13;70.71;98425.59;7370060;19;19943;-82
2023/01/07 08:35:17;;;;;;;;;;;;;;;9.15;70.84;98428.09;7364350;19;20715;-83
2023/01/07 08:37:44;;;;;;;;;;;;;;;9.14;70.90;98421.16;7366510;19;20337;-83
2023/01/07 08:40:11;;;;;;;;;;;;;;;9.13;70.76;98424.75;7368302;19;20310;-82
2023/01/07 08:42:38;;;;;;;;;;;;;;;9.28;70.44;98422.47;7365714;19;20842;-82
2023/01/07 08:45:05;;;;;;;;;;;;;;;9.38;69.79;98420.63;7370684;19;21952;-83
2023/01/07 08:47:32;;;;;;;;;;;;;;;9.21;70.00;98415.13;7367218;19;19926;-82
2023/01/07 08:49:58;;;;;;;;;;;;;;;8.96;70.69;98421.91;7370067;19;19922;-82
2023/01/07 08:52:28;;;;;;;;;;;;;;;9.17;69.51;98413.78;7365482;19;19939;-82
2023/01/07 08:54:55;;;;;;;;;;;;;;;9.14;69.93;98413.25;7365165;19;19925;-83
2023/01/07 08:57:21;;;;;;;;;;;;;;;9.21;69.89;98409.84;7368235;19;19918;-83
2023/01/07 08:59:48;;;;;;;;;;;;;;;9.18;69.23;98407.50;7369663;19;19915;-82
2023/01/07 09:02:15;;;;;;;;;;;;;;;9.28;69.31;98407.47;7359173;19;19921;-82
2023/01/07 09:04:43;;;;;;;;;;;;;;;9.39;69.35;98411.72;7365897;19;19925;-83
2023/01/07 09:07:09;;;;;;;;;;;;;;;9.34;68.97;98411.31;7368656;19;19963;-83
2023/01/07 09:09:36;;;;;;;;;;;;;;;9.54;68.83;98407.59;7364962;19;19923;-82
2023/01/07 09:12:03;;;;;;;;;;;;;;;9.39;68.78;98409.06;7365892;19;19990;-83
2023/01/07 09:14:30;;;;;;;;;;;;;;;9.57;68.33;98401.19;7361930;19;19919;-82
2023/01/07 09:16:57;;;;;;;;;;;;;;;9.70;68.13;98403.47;7360756;19;19918;-82
2023/01/07 09:19:24;;;;;;;;;;;;;;;9.41;68.47;98399.19;7362586;19;20363;-83
2023/01/07 09:21:50;;;;;;;;;;;;;;;9.39;68.85;98398.50;7365903;19;19922;-83
2023/01/07 09:24:17;;;;;;;;;;;;;;;9.47;68.48;98395.97;7362234;19;19936;-83
2023/01/07 09:26:44;;;;;;;;;;;;;;;9.57;68.79;98401.19;7367868;19;19922;-82
2023/01/07 09:29:10;;;;;;;;;;;;;;;9.71;68.92;98399.84;7367275;19;19915;-82
2023/01/07 09:31:37;;;;;;;;;;;;;;;9.55;68.25;98401.34;7366134;19;19929;-82
2023/01/07 09:34:03;;;;;;;;;;;;;;;9.73;68.49;98406.66;7366726;19;19986;-83
2023/01/07 09:36:30;;;;;;;;;;;;;;;9.77;67.70;98400.09;7357355;19;20653;-82
2023/01/07 09:38:57;;;;;;;;;;;;;;;9.80;67.39;98401.59;7367593;19;19923;-82
2023/01/07 09:41:29;;;;;;;;;;;;;;;9.81;67.50;98412.00;7366662;19;19932;-82
2023/01/07 09:43:58;;;;;;;;;;;;;;;9.83;67.47;98407.41;7371655;19;19923;-82
2023/01/07 09:46:29;;;;;;;;;;;;;;;9.83;67.32;98406.59;7368489;19;19914;-82
2023/01/07 09:49:01;;;;;;;;;;;;;;;9.89;67.52;98404.16;7371775;19;20007;-82
2023/01/07 09:51:29;;;;;;;;;;;;;;;9.87;68.24;98407.94;7367190;19;22415;-82
2023/01/07 09:53:58;;;;;;;;;;;;;;;9.96;67.45;98400.94;7371965;19;19941;-82
2023/01/07 09:56:27;;;;;;;;;;;;;;;9.78;67.54;98395.63;7364174;19;19936;-82
2023/01/07 09:58:55;;;;;;;;;;;;;;;9.95;67.89;98393.97;7369750;19;19923;-82
2023/01/07 10:01:34;;;;;;;;;;;;;;;9.83;68.13;98398.66;7374214;19;19931;-82
2023/01/07 10:04:19;;;;;;;;;;;;;;;10.10;67.44;98397.75;7367993;19;19952;-82
2023/01/07 10:07:12;;;;;;;;;;;;;;;9.83;68.04;98390.72;7366823;19;21574;-82
2023/01/07 10:09:45;;;;;;;;;;;;;;;10.01;67.99;98386.28;7369821;19;19927;-82
2023/01/07 10:12:21;;;;;;;;;;;;;;;9.56;68.07;98373.97;7373605;19;19924;-81
2023/01/07 10:15:03;;;;;;;;;;;;;;;9.51;67.97;98376.22;7367634;19;20276;-80
2023/01/07 10:17:49;;;;;;;;;;;;;;;9.61;67.62;98371.69;7364447;19;20355;-82
2023/01/07 10:20:22;;;;;;;;;;;;;;;9.82;68.42;98363.47;7370210;19;19911;-81
2023/01/07 10:23:07;;;;;;;;;;;;;;;9.90;68.10;98365.38;7372763;19;19925;-82
2023/01/07 10:25:35;;;;;;;;;;;;;;;9.63;67.62;98360.97;7369331;19;19918;-82
2023/01/07 10:28:04;;;;;;;;;;;;;;;9.57;67.91;98353.66;7370503;19;19922;-81
2023/01/07 10:30:31;;;;;;;;;;;;;;;9.91;67.29;98353.00;7371964;19;19954;-82
2023/01/07 10:33:01;;;;;;;;;;;;;;;9.81;68.50;98342.50;7369959;19;22471;-82
2023/01/07 10:35:31;;;;;;;;;;;;;;;10.08;67.80;98330.97;7365481;19;19929;-82
2023/01/07 10:37:58;;;;;;;;;;;;;;;10.06;67.66;98338.25;7370092;19;19915;-83
2023/01/07 10:40:25;;;;;;;;;;;;;;;10.02;67.62;98335.06;7369067;19;20664;-80
2023/01/07 10:43:05;;;;;;;;;;;;;;;9.91;66.45;98329.19;7370338;19;20815;-82
2023/01/07 10:45:34;;;;;;;;;;;;;;;10.25;66.88;98327.47;7365768;19;20328;-81
2023/01/07 10:48:23;;;;;;;;;;;;;;;10.49;65.89;98323.38;7371601;19;20272;-82
2023/01/07 10:50:50;;;;;;;;;;;;;;;10.19;66.03;98320.19;7366715;19;19926;-82
2023/01/07 10:53:23;;;;;;;;;;;;;;;10.30;66.06;98316.47;7368589;19;19923;-79
2023/01/07 10:55:53;;;;;;;;;;;;;;;10.44;65.93;98318.53;7367910;19;19923;-81
2023/01/07 10:58:20;;;;;;;;;;;;;;;10.76;64.71;98309.94;7363432;19;19918;-83
2023/01/07 11:00:47;;;;;;;;;;;;;;;10.65;65.50;98307.56;7373327;19;19911;-82
2023/01/07 11:03:20;;;;;;;;;;;;;;;10.60;66.32;98309.88;7367473;19;20358;-81
2023/01/07 11:05:49;;;;;;;;;;;;;;;10.58;64.72;98292.50;7365909;19;19918;-82
2023/01/07 11:08:39;;;;;;;;;;;;;;;10.81;65.21;98287.47;7368475;19;20281;-82
2023/01/07 11:11:06;;;;;;;;;;;;;;;10.90;64.61;98289.16;7369185;19;19918;-82
2023/01/07 11:13:34;;;;;;;;;;;;;;;10.83;65.64;98278.38;7364078;19;20555;-83
2023/01/07 11:16:06;;;;;;;;;;;;;;;10.44;64.69;98276.22;7366436;19;19943;-80
2023/01/07 11:18:52;;;;;;;;;;;;;;;10.28;65.66;98271.66;7365878;19;19940;-80
2023/01/07 11:21:32;;;;;;;;;;;;;;;10.28;66.05;98268.19;7369061;19;21032;-82
2023/01/07 11:24:18;;;;;;;;;;;;;;;10.23;65.45;98265.16;7368827;19;19922;-82
2023/01/07 11:26:45;;;;;;;;;;;;;;;10.33;65.47;98265.91;7259664;19;19984;-82
2023/01/07 11:29:14;;;;;;;;;;;;;;;10.50;65.06;98264.19;7369672;19;19915;-81
2023/01/07 11:31:42;;;;;;;;;;;;;;;10.30;65.05;98255.66;7371009;19;19918;-81
2023/01/07 11:34:35;;;;;;;;;;;;;;;10.36;65.02;98248.91;7370650;19;19935;-82
2023/01/07 11:37:03;;;;;;;;;;;;;;;10.58;64.22;98245.69;7370323;19;19914;-82
2023/01/07 11:39:31;;;;;;;;;;;;;;;10.43;64.93;98240.19;7368597;19;19911;-82
2023/01/07 11:41:59;;;;;;;;;;;;;;;10.75;65.34;98230.72;7369621;19;19910;-83
2023/01/07 11:44:26;;;;;;;;;;;;;;;10.39;64.72;98232.72;7359091;19;20419;-80
2023/01/07 11:46:53;;;;;;;;;;;;;;;10.40;64.62;98227.28;7368546;19;20256;-81
2023/01/07 11:49:24;;;;;;;;;;;;;;;10.51;65.12;98224.34;7361046;19;19943;-83
2023/01/07 11:51:50;;;;;;;;;;;;;;;10.27;65.30;98222.44;7368645;19;19921;-79
2023/01/07 11:54:18;;;;;;;;;;;;;;;10.22;64.89;98223.84;7364818;19;19928;-80
2023/01/07 11:56:45;;;;;;;;;;;;;;;10.58;64.97;98213.13;7368988;19;19926;-81
2023/01/07 11:59:14;;;;;;;;;;;;;;;10.49;64.56;98210.44;7374029;19;20325;-83
2023/01/07 12:01:42;;;;;;;;;;;;;;;10.69;64.53;98204.88;7368919;19;22309;-83
2023/01/07 12:04:28;;;;;;;;;;;;;;;10.61;65.33;98194.28;7366603;19;20421;-80
2023/01/07 12:07:05;;;;;;;;;;;;;;;10.62;64.78;98191.50;7372056;19;19926;-82
2023/01/07 12:09:34;;;;;;;;;;;;;;;10.98;64.57;98183.31;7369232;19;20536;-82
2023/01/07 12:12:30;;;;;;;;;;;;;;;10.58;64.46;98187.50;7380416;19;19929;-80
2023/01/07 12:14:54;;;;;;;;;;;;;;;10.46;64.66;98178.22;7380818;19;19946;-81
2023/01/07 12:17:21;;;;;;;;;;;;;;;10.69;64.04;98170.50;7369528;19;19919;-80
2023/01/07 12:20:01;;;;;;;;;;;;;;;10.50;64.04;98161.84;7375214;19;22529;-80
2023/01/07 12:22:44;;;;;;;;;;;;;;;10.62;64.56;98154.47;7371643;19;19930;-81
2023/01/07 12:25:21;;;;;;;;;;;;;;;10.50;64.02;98142.50;7376096;19;19914;-81
2023/01/07 12:27:50;;;;;;;;;;;;;;;10.71;63.61;98147.34;7377371;19;19915;-81
2023/01/07 12:30:31;;;;;;;;;;;;;;;10.77;63.71;98146.72;7377469;19;19922;-82
2023/01/07 12:33:04;;;;;;;;;;;;;;;11.02;63.10;98126.41;7380378;19;19929;-82
2023/01/07 12:35:37;;;;;;;;;;;;;;;10.82;63.31;98128.53;7377276;19;20669;-80
2023/01/07 12:38:18;;;;;;;;;;;;;;;10.83;63.31;98118.78;7377219;19;19915;-83
2023/01/07 12:40:44;;;;;;;;;;;;;;;10.77;63.95;98109.69;7374609;19;19941;-80
2023/01/07 12:43:22;;;;;;;;;;;;;;;10.79;62.88;98099.75;7382453;19;19915;-83
2023/01/07 12:45:52;;;;;;;;;;;;;;;10.79;63.52;98097.09;7374066;19;19917;-83
2023/01/07 12:48:28;;;;;;;;;;;;;;;11.02;62.64;98099.09;7371398;19;19923;-82
2023/01/07 12:50:55;;;;;;;;;;;;;;;10.88;63.01;98090.00;7381014;19;19915;-82
2023/01/07 12:53:24;;;;;;;;;;;;;;;10.84;63.10;98089.50;7366461;19;19917;-84
2023/01/07 12:55:52;;;;;;;;;;;;;;;10.53;63.29;98082.19;7370489;19;20132;-80
2023/01/07 12:58:31;;;;;;;;;;;;;;;10.50;63.49;98071.91;7373044;19;19930;-80
2023/01/07 13:01:03;;;;;;;;;;;;;;;10.75;63.33;98069.31;7377638;19;19927;-80
2023/01/07 13:03:36;;;;;;;;;;;;;;;10.80;62.97;98068.84;7372188;19;19915;-82
2023/01/07 13:06:12;;;;;;;;;;;;;;;10.99;63.31;98066.66;7364868;19;19922;-83